createdAt,value
2018-06-20T00:01:33.753Z,3.90
2018-06-20T00:04:05.997Z,3.20
2018-06-20T00:06:42.233Z,3.60
2018-06-20T00:09:14.597Z,4.07
2018-06-20T00:11:46.769Z,3.47
2018-06-20T00:14:19.099Z,3.13
2018-06-20T00:16:51.560Z,2.90
2018-06-20T00:19:24.385Z,3.53
2018-06-20T00:21:56.847Z,3.23
2018-06-20T00:24:29.041Z,3.40
2018-06-20T00:27:02.455Z,2.50
2018-06-20T00:29:34.916Z,5.57
2018-06-20T00:32:07.188Z,7.00
2018-06-20T00:34:39.797Z,4.30
2018-06-20T00:37:12.260Z,3.10
2018-06-20T00:39:44.628Z,4.80
2018-06-20T00:42:17.123Z,3.77
2018-06-20T00:44:49.699Z,4.90
2018-06-20T00:47:23.310Z,5.27
2018-06-20T00:49:55.641Z,3.63
2018-06-20T00:52:28.509Z,3.70
2018-06-20T00:55:01.771Z,7.23
2018-06-20T00:57:34.266Z,4.80
2018-06-20T01:00:07.225Z,2.67
2018-06-20T01:02:39.645Z,3.03
2018-06-20T01:05:11.902Z,3.67
2018-06-20T01:07:44.322Z,4.30
2018-06-20T01:10:16.882Z,3.30
2018-06-20T01:12:49.230Z,4.57
2018-06-20T01:15:21.741Z,4.10
2018-06-20T01:17:53.939Z,4.27
2018-06-20T01:20:26.560Z,2.73
2018-06-20T01:22:58.854Z,3.30
2018-06-20T01:25:31.174Z,3.93
2018-06-20T01:28:03.626Z,5.10
2018-06-20T01:30:36.362Z,3.53
2018-06-20T01:33:08.963Z,5.80
2018-06-20T01:35:41.408Z,3.30
2018-06-20T01:38:14.160Z,3.00
2018-06-20T01:40:47.233Z,6.00
2018-06-20T01:43:19.890Z,3.77
2018-06-20T01:45:53.292Z,3.37
2018-06-20T01:48:26.042Z,3.03
2018-06-20T01:51:00.026Z,10.73
2018-06-20T01:53:32.946Z,3.80
2018-06-20T01:56:05.493Z,4.23
2018-06-20T01:58:37.895Z,2.93
2018-06-20T02:01:10.085Z,3.37
2018-06-20T02:03:42.633Z,6.10
2018-06-20T02:06:15.139Z,3.87
2018-06-20T02:08:47.573Z,3.20
2018-06-20T02:11:19.907Z,2.50
2018-06-20T02:13:52.481Z,4.90
2018-06-20T02:16:25.922Z,3.50
2018-06-20T02:18:58.108Z,6.90
2018-06-20T02:21:30.629Z,4.40
2018-06-20T02:24:03.242Z,4.90
2018-06-20T02:26:35.932Z,4.70
2018-06-20T02:29:08.549Z,4.10
2018-06-20T02:31:41.099Z,4.83
2018-06-20T02:34:13.465Z,4.37
2018-06-20T02:36:45.869Z,3.13
2018-06-20T02:39:18.216Z,9.10
2018-06-20T02:41:51.542Z,3.33
2018-06-20T02:44:24.516Z,3.93
2018-06-20T02:46:58.185Z,5.50
2018-06-20T02:49:30.948Z,3.20
2018-06-20T02:52:03.555Z,4.23
2018-06-20T02:54:35.892Z,4.37
2018-06-20T02:57:08.268Z,4.43
2018-06-20T02:59:40.628Z,6.23
2018-06-20T03:02:13.228Z,3.00
2018-06-20T03:04:45.396Z,3.60
2018-06-20T03:07:17.706Z,3.23
2018-06-20T03:09:50.221Z,6.10
2018-06-20T03:12:22.819Z,5.00
2018-06-20T03:14:55.140Z,4.20
2018-06-20T03:17:27.719Z,4.57
2018-06-20T03:20:00.295Z,7.23
2018-06-20T03:22:32.695Z,4.33
2018-06-20T03:25:05.051Z,4.80
2018-06-20T03:27:37.919Z,4.00
2018-06-20T03:30:10.259Z,6.30
2018-06-20T03:32:42.697Z,5.10
2018-06-20T03:35:15.956Z,5.93
2018-06-20T03:37:48.620Z,3.60
2018-06-20T03:40:21.817Z,4.20
2018-06-20T03:42:54.356Z,7.30
2018-06-20T03:45:26.986Z,3.90
2018-06-20T03:47:59.076Z,4.60
2018-06-20T03:50:31.687Z,4.10
2018-06-20T03:53:04.046Z,3.77
2018-06-20T03:55:36.420Z,7.43
2018-06-20T03:58:08.669Z,4.77
2018-06-20T04:00:41.317Z,6.50
2018-06-20T04:03:13.781Z,5.63
2018-06-20T04:05:46.321Z,7.53
2018-06-20T04:08:19.290Z,5.60
2018-06-20T04:10:51.848Z,7.23
2018-06-20T04:13:24.270Z,5.83
2018-06-20T04:15:56.667Z,5.50
2018-06-20T04:18:33.667Z,7.27
2018-06-20T04:21:06.170Z,5.63
2018-06-20T04:23:39.013Z,5.47
2018-06-20T04:26:12.169Z,5.37
2018-06-20T04:28:44.682Z,4.90
2018-06-20T04:31:17.234Z,5.03
2018-06-20T04:33:49.410Z,5.57
2018-06-20T04:36:21.582Z,8.60
2018-06-20T04:38:54.252Z,5.50
2018-06-20T04:41:26.719Z,7.57
2018-06-20T04:43:59.877Z,5.13
2018-06-20T04:46:32.703Z,5.50
2018-06-20T04:49:05.383Z,5.57
2018-06-20T04:51:38.059Z,6.87
2018-06-20T04:54:10.633Z,7.50
2018-06-20T04:56:43.372Z,5.67
2018-06-20T04:59:15.850Z,7.10
2018-06-20T05:01:48.307Z,6.73
2018-06-20T05:04:20.930Z,6.73
2018-06-20T05:06:53.112Z,9.70
2018-06-20T05:09:25.842Z,5.07
2018-06-20T05:11:59.476Z,5.97
2018-06-20T05:14:31.865Z,5.37
2018-06-20T05:17:04.439Z,12.07
2018-06-20T05:19:37.020Z,6.80
2018-06-20T05:22:09.195Z,6.23
2018-06-20T05:24:41.601Z,8.37
2018-06-20T05:27:14.081Z,9.43
2018-06-20T05:29:46.287Z,9.03
2018-06-20T05:32:18.667Z,11.23
2018-06-20T05:34:51.066Z,8.53
2018-06-20T05:37:23.565Z,6.70
2018-06-20T05:39:56.085Z,7.17
2018-06-20T05:42:28.359Z,7.63
2018-06-20T05:45:00.932Z,7.47
2018-06-20T05:47:33.699Z,6.63
2018-06-20T05:50:06.196Z,13.17
2018-06-20T05:52:38.674Z,5.57
2018-06-20T05:55:10.936Z,5.87
2018-06-20T05:57:43.246Z,5.57
2018-06-20T06:00:15.584Z,5.97
2018-06-20T06:02:47.969Z,9.07
2018-06-20T06:05:20.511Z,8.20
2018-06-20T06:07:52.859Z,5.30
2018-06-20T06:10:25.480Z,8.73
2018-06-20T06:12:57.834Z,10.13
2018-06-20T06:15:30.185Z,7.47
2018-06-20T06:18:02.783Z,8.50
2018-06-20T06:23:12.459Z,7.33
2018-06-20T06:25:45.384Z,10.80
2018-06-20T06:28:18.092Z,8.33
2018-06-20T06:33:27.790Z,10.37
2018-06-20T06:36:00.261Z,10.27
2018-06-20T06:38:32.386Z,10.07
2018-06-20T06:41:05.217Z,8.03
2018-06-20T06:43:37.563Z,8.60
2018-06-20T06:46:10.130Z,8.57
2018-06-20T06:48:42.468Z,7.40
2018-06-20T06:51:14.724Z,7.13
2018-06-20T06:53:47.443Z,8.17
2018-06-20T06:56:20.410Z,8.50
2018-06-20T06:58:52.754Z,8.30
2018-06-20T07:01:24.965Z,8.33
2018-06-20T07:03:57.470Z,6.37
2018-06-20T07:06:29.916Z,6.37
2018-06-20T07:09:02.444Z,8.53
2018-06-20T07:11:35.044Z,8.03
2018-06-20T07:14:07.520Z,7.27
2018-06-20T07:16:39.801Z,9.80
2018-06-20T07:19:12.369Z,8.27
2018-06-20T07:21:44.719Z,9.73
2018-06-20T07:24:16.987Z,15.33
2018-06-20T07:26:49.547Z,9.17
2018-06-20T07:29:21.836Z,8.10
2018-06-20T07:31:54.290Z,9.53
2018-06-20T07:34:26.664Z,9.07
2018-06-20T07:36:59.204Z,8.50
2018-06-20T07:39:31.555Z,9.43
2018-06-20T07:42:03.996Z,8.53
2018-06-20T07:44:36.741Z,8.80
2018-06-20T07:47:09.203Z,8.73
2018-06-20T07:49:41.260Z,8.40
2018-06-20T07:52:14.307Z,8.97
2018-06-20T07:54:47.030Z,10.47
2018-06-20T07:57:19.973Z,11.00
2018-06-20T07:59:56.868Z,8.00
2018-06-20T08:02:42.836Z,8.77
2018-06-20T08:05:20.381Z,8.53
2018-06-20T08:07:57.743Z,6.63
2018-06-20T08:10:35.113Z,7.60
2018-06-20T08:13:12.244Z,9.80
2018-06-20T08:15:49.361Z,12.40
2018-06-20T08:18:27.390Z,7.63
2018-06-20T08:21:00.793Z,7.97
2018-06-20T08:23:34.474Z,7.97
2018-06-20T08:26:07.903Z,14.83
2018-06-20T08:28:41.232Z,5.80
2018-06-20T08:31:15.760Z,10.33
2018-06-20T08:33:49.480Z,8.40
2018-06-20T08:36:22.749Z,9.37
2018-06-20T08:38:55.646Z,8.57
2018-06-20T08:41:28.985Z,10.87
2018-06-20T08:44:02.422Z,14.90
2018-06-20T08:46:35.435Z,8.80
2018-06-20T08:49:07.472Z,12.23
2018-06-20T08:51:42.095Z,14.87
2018-06-20T08:54:14.985Z,6.00
2018-06-20T08:56:49.064Z,10.13
2018-06-20T08:59:23.627Z,6.33
2018-06-20T09:01:59.500Z,9.97
2018-06-20T09:04:36.387Z,6.97
2018-06-20T09:07:14.057Z,9.97
2018-06-20T09:09:51.445Z,9.03
2018-06-20T09:12:28.509Z,9.20
2018-06-20T09:15:06.263Z,16.80
2018-06-20T09:17:43.680Z,9.10
2018-06-20T09:20:16.412Z,10.43
2018-06-20T09:22:49.614Z,7.10
2018-06-20T09:25:22.707Z,7.97
2018-06-20T09:27:55.510Z,10.97
2018-06-20T09:30:28.513Z,9.37
2018-06-20T09:33:01.687Z,7.60
2018-06-20T09:35:34.392Z,9.90
2018-06-20T09:38:07.086Z,10.13
2018-06-20T09:40:40.660Z,8.40
2018-06-20T09:43:13.443Z,8.43
2018-06-20T09:45:46.647Z,8.50
2018-06-20T09:48:19.616Z,9.60
2018-06-20T09:50:59.557Z,8.00
2018-06-20T09:53:31.827Z,8.30
2018-06-20T09:56:04.420Z,7.50
2018-06-20T09:58:36.759Z,6.23
2018-06-20T10:01:13.712Z,10.10
2018-06-20T10:03:50.634Z,10.07
2018-06-20T10:06:27.957Z,11.03
2018-06-20T10:09:04.629Z,8.33
2018-06-20T10:11:41.690Z,11.30
2018-06-20T10:14:14.900Z,14.13
2018-06-20T10:16:47.133Z,7.20
2018-06-20T10:19:19.290Z,7.40
2018-06-20T10:21:51.687Z,10.83
2018-06-20T10:24:24.027Z,8.03
2018-06-20T10:26:56.448Z,7.67
2018-06-20T10:29:28.774Z,10.53
2018-06-20T10:32:01.166Z,9.70
2018-06-20T10:34:33.614Z,8.57
2018-06-20T10:37:06.072Z,12.27
2018-06-20T10:39:38.561Z,8.87
2018-06-20T10:42:11.153Z,12.33
2018-06-20T10:44:43.332Z,10.97
2018-06-20T10:47:20.060Z,11.90
2018-06-20T10:49:52.357Z,10.37
2018-06-20T10:52:24.931Z,12.93
2018-06-20T10:54:57.325Z,10.07
2018-06-20T10:57:35.367Z,9.53
2018-06-20T11:00:12.031Z,8.97
2018-06-20T11:02:49.028Z,11.50
2018-06-20T11:05:25.691Z,12.30
2018-06-20T11:08:02.814Z,11.40
2018-06-20T11:10:39.672Z,10.40
2018-06-20T11:13:14.221Z,9.00
2018-06-20T11:15:47.166Z,11.10
2018-06-20T11:18:19.789Z,12.17
2018-06-20T11:20:59.635Z,11.63
2018-06-20T11:23:32.134Z,11.90
2018-06-20T11:26:04.476Z,7.83
2018-06-20T11:28:36.893Z,11.83
2018-06-20T11:31:09.371Z,12.10
2018-06-20T11:33:41.802Z,9.23
2018-06-20T11:36:14.161Z,10.13
2018-06-20T11:38:46.359Z,9.57
2018-06-20T11:41:18.864Z,10.17
2018-06-20T11:43:51.503Z,10.73
2018-06-20T11:46:28.248Z,11.10
2018-06-20T11:49:00.585Z,11.93
2018-06-20T11:51:33.075Z,9.37
2018-06-20T11:54:06.056Z,10.10
2018-06-20T11:56:38.339Z,13.73
2018-06-20T11:59:15.939Z,9.90
2018-06-20T12:01:52.841Z,10.43
2018-06-20T12:04:29.720Z,13.53
2018-06-20T12:07:06.807Z,11.93
2018-06-20T12:09:43.682Z,10.60
2018-06-20T12:12:20.869Z,15.10
2018-06-20T12:14:57.453Z,12.10
2018-06-20T12:17:34.359Z,13.37
2018-06-20T12:20:11.044Z,12.63
2018-06-20T12:22:47.884Z,17.80
2018-06-20T12:25:24.809Z,15.50
2018-06-20T12:28:01.385Z,9.27
2018-06-20T12:30:38.228Z,16.50
2018-06-20T12:33:15.107Z,14.53
2018-06-20T12:35:52.074Z,12.93
2018-06-20T12:38:29.193Z,12.73
2018-06-20T12:41:06.331Z,11.00
2018-06-20T12:43:43.429Z,14.00
2018-06-20T12:46:23.776Z,13.63
2018-06-20T12:48:56.139Z,13.10
2018-06-20T12:51:28.325Z,10.03
2018-06-20T12:54:00.837Z,13.73
2018-06-20T12:56:33.548Z,9.20
2018-06-20T12:59:05.829Z,8.73
2018-06-20T13:01:38.169Z,13.03
2018-06-20T13:04:10.750Z,12.30
2018-06-20T13:06:42.950Z,7.83
2018-06-20T13:09:15.052Z,12.10
2018-06-20T13:11:47.553Z,9.20
2018-06-20T13:14:20.101Z,12.20
2018-06-20T13:16:52.508Z,12.10
2018-06-20T13:19:24.854Z,18.30
2018-06-20T13:21:57.454Z,13.10
2018-06-20T13:24:29.603Z,12.57
2018-06-20T13:27:02.014Z,12.50
2018-06-20T13:29:34.269Z,10.73
2018-06-20T13:32:11.457Z,12.87
2018-06-20T13:34:48.558Z,12.00
2018-06-20T13:37:25.705Z,13.67
2018-06-20T13:40:02.819Z,13.40
2018-06-20T13:42:39.904Z,12.90
2018-06-20T13:45:16.505Z,13.07
2018-06-20T13:47:53.514Z,16.00
2018-06-20T13:50:26.050Z,13.87
2018-06-20T13:52:58.872Z,13.07
2018-06-20T13:55:31.162Z,12.33
2018-06-20T13:58:04.091Z,10.27
2018-06-20T14:00:36.561Z,14.30
2018-06-20T14:03:09.115Z,9.90
2018-06-20T14:05:41.414Z,13.73
2018-06-20T14:08:14.026Z,13.43
2018-06-20T14:10:46.901Z,12.67
2018-06-20T14:13:19.173Z,15.57
2018-06-20T14:15:51.774Z,12.47
2018-06-20T14:18:24.135Z,16.07
2018-06-20T14:21:01.300Z,14.13
2018-06-20T14:23:33.592Z,11.10
2018-06-20T14:26:06.266Z,12.67
2018-06-20T14:28:38.681Z,10.83
2018-06-20T14:31:15.665Z,16.57
2018-06-20T14:33:52.558Z,10.20
2018-06-20T14:36:31.732Z,12.80
2018-06-20T14:39:08.685Z,11.13
2018-06-20T14:41:45.462Z,12.20
2018-06-20T14:44:17.975Z,19.87
2018-06-20T14:46:50.284Z,11.77
2018-06-20T14:49:22.817Z,16.40
2018-06-20T14:51:55.280Z,12.07
2018-06-20T14:54:27.542Z,10.50
2018-06-20T14:57:00.379Z,12.13
2018-06-20T14:59:33.372Z,13.67
2018-06-20T15:02:05.150Z,16.20
2018-06-20T15:04:37.710Z,10.37
2018-06-20T15:07:09.793Z,15.23
2018-06-20T15:09:42.597Z,10.87
2018-06-20T15:12:15.137Z,11.37
2018-06-20T15:14:47.747Z,14.17
2018-06-20T15:17:24.674Z,11.53
2018-06-20T15:19:57.250Z,10.03
2018-06-20T15:22:31.479Z,9.07
2018-06-20T15:25:04.334Z,10.93
2018-06-20T15:27:41.160Z,6.53
2018-06-20T15:30:18.138Z,9.20
2018-06-20T15:32:55.008Z,8.13
2018-06-20T15:35:31.683Z,8.83
2018-06-20T15:38:08.673Z,11.20
2018-06-20T15:40:40.873Z,8.20
2018-06-20T15:43:13.708Z,6.93
2018-06-20T15:45:45.969Z,6.73
2018-06-20T15:48:18.341Z,10.57
2018-06-20T15:50:50.592Z,9.20
2018-06-20T15:53:23.124Z,9.03
2018-06-20T15:55:55.479Z,10.63
2018-06-20T15:58:27.974Z,10.80
2018-06-20T16:01:00.427Z,8.20
2018-06-20T16:03:33.017Z,23.93
2018-06-20T16:06:05.222Z,9.50
2018-06-20T16:10:45.983Z,13.50
2018-06-20T16:13:17.566Z,10.57
2018-06-20T16:15:48.912Z,12.20
2018-06-20T16:18:21.427Z,10.30
2018-06-20T16:20:58.419Z,8.83
2018-06-20T16:23:35.265Z,7.80
2018-06-20T16:26:12.226Z,6.57
2018-06-20T16:28:49.340Z,8.93
2018-06-20T16:31:21.648Z,9.50
2018-06-20T16:33:54.217Z,8.23
2018-06-20T16:36:26.767Z,9.27
2018-06-20T16:38:59.069Z,6.83
2018-06-20T16:41:31.529Z,8.37
2018-06-20T16:44:04.598Z,8.03
2018-06-20T16:46:37.086Z,9.13
2018-06-20T16:49:09.633Z,9.40
2018-06-20T16:51:48.062Z,7.47
2018-06-20T16:54:21.053Z,6.60
2018-06-20T16:56:53.439Z,6.60
2018-06-20T16:59:26.224Z,6.60
2018-06-20T17:02:03.358Z,8.33
2018-06-20T17:04:35.666Z,8.40
2018-06-20T17:07:07.852Z,6.53
2018-06-20T17:09:40.030Z,9.27
2018-06-20T17:12:15.633Z,8.40
2018-06-20T17:14:52.499Z,6.30
2018-06-20T17:17:29.489Z,7.70
2018-06-20T17:22:13.174Z,10.33
2018-06-20T17:24:49.884Z,9.30
2018-06-20T17:27:22.162Z,5.83
2018-06-20T17:29:54.540Z,7.10
2018-06-20T17:32:27.168Z,7.60
2018-06-20T17:34:58.561Z,7.43
2018-06-20T17:37:31.327Z,6.60
2018-06-20T17:40:03.905Z,7.53
2018-06-20T17:42:36.393Z,6.73
2018-06-20T17:45:08.844Z,6.30
2018-06-20T17:47:41.063Z,5.67
2018-06-20T17:50:13.349Z,6.30
2018-06-20T17:52:45.781Z,10.00
2018-06-20T17:55:18.166Z,10.07
2018-06-20T17:57:50.516Z,9.50
2018-06-20T18:00:22.860Z,5.67
2018-06-20T18:02:55.605Z,7.80
2018-06-20T18:05:32.600Z,8.97
2018-06-20T18:08:09.508Z,10.97
2018-06-20T18:10:46.511Z,8.67
2018-06-20T18:13:19.497Z,9.60
2018-06-20T18:15:56.476Z,8.23
2018-06-20T18:18:28.991Z,8.23
2018-06-20T18:21:01.316Z,6.97
2018-06-20T18:23:33.894Z,7.63
2018-06-20T18:26:06.113Z,7.70
2018-06-20T18:28:38.845Z,9.43
2018-06-20T18:31:11.258Z,6.83
2018-06-20T18:33:43.660Z,11.80
2018-06-20T18:36:16.001Z,8.27
2018-06-20T18:38:48.756Z,6.83
2018-06-20T18:41:21.195Z,8.03
2018-06-20T18:43:53.963Z,8.70
2018-06-20T18:46:26.538Z,6.97
2018-06-20T18:48:57.788Z,9.73
2018-06-20T18:51:30.367Z,8.50
2018-06-20T18:54:02.994Z,6.53
2018-06-20T18:56:35.447Z,6.77
2018-06-20T18:59:12.454Z,7.90
2018-06-20T19:01:49.401Z,7.93
2018-06-20T19:04:26.773Z,6.03
2018-06-20T19:07:03.703Z,4.87
2018-06-20T19:09:36.168Z,6.80
2018-06-20T19:12:08.550Z,6.47
2018-06-20T19:14:40.787Z,5.63
2018-06-20T19:17:13.188Z,8.50
2018-06-20T19:19:45.331Z,8.17
2018-06-20T19:22:17.925Z,7.43
2018-06-20T19:24:50.360Z,9.53
2018-06-20T19:27:22.767Z,7.47
2018-06-20T19:29:55.146Z,5.30
2018-06-20T19:32:27.499Z,8.07
2018-06-20T19:34:59.790Z,5.37
2018-06-20T19:37:32.149Z,7.67
2018-06-20T19:40:04.315Z,5.60
2018-06-20T19:42:36.843Z,7.40
2018-06-20T19:45:09.245Z,8.40
2018-06-20T19:47:41.620Z,8.00
2018-06-20T19:50:14.206Z,6.17
2018-06-20T19:52:46.772Z,7.20
2018-06-20T19:55:19.196Z,8.37
2018-06-20T19:57:52.559Z,9.50
2018-06-20T20:00:24.961Z,5.50
2018-06-20T20:02:56.552Z,5.50
2018-06-20T20:05:28.684Z,6.00
2018-06-20T20:08:01.208Z,5.90
2018-06-20T20:10:33.559Z,5.43
2018-06-20T20:13:05.817Z,6.10
2018-06-20T20:15:38.325Z,5.87
2018-06-20T20:18:10.698Z,5.70
2018-06-20T20:20:43.076Z,6.23
2018-06-20T20:23:15.439Z,5.30
2018-06-20T20:25:47.863Z,5.83
2018-06-20T20:28:20.097Z,6.27
2018-06-20T20:30:52.154Z,6.67
2018-06-20T20:33:24.705Z,6.03
2018-06-20T20:35:57.105Z,5.77
2018-06-20T20:38:29.863Z,6.63
2018-06-20T20:41:02.221Z,5.50
2018-06-20T20:43:34.430Z,5.03
2018-06-20T20:46:07.179Z,7.13
2018-06-20T20:48:39.663Z,9.43
2018-06-20T20:51:12.046Z,6.50
2018-06-20T20:53:44.536Z,5.23
2018-06-20T20:56:16.903Z,11.43
2018-06-20T20:58:49.269Z,6.90
2018-06-20T21:01:21.723Z,9.50
2018-06-20T21:03:54.330Z,5.90
2018-06-20T21:06:26.849Z,6.40
2018-06-20T21:08:59.273Z,7.10
2018-06-20T21:11:33.539Z,8.87
2018-06-20T21:14:05.984Z,6.10
2018-06-20T21:16:38.356Z,4.70
2018-06-20T21:19:10.733Z,6.80
2018-06-20T21:21:43.269Z,6.00
2018-06-20T21:24:15.641Z,5.47
2018-06-20T21:26:48.021Z,6.20
2018-06-20T21:29:20.182Z,9.30
2018-06-20T21:31:52.506Z,6.27
2018-06-20T21:34:24.908Z,4.80
2018-06-20T21:36:57.076Z,6.90
2018-06-20T21:39:29.678Z,5.73
2018-06-20T21:42:02.441Z,6.20
2018-06-20T21:44:34.836Z,7.27
2018-06-20T21:47:07.601Z,6.90
2018-06-20T21:49:40.184Z,4.50
2018-06-20T21:52:13.204Z,8.47
2018-06-20T21:54:45.560Z,7.03
2018-06-20T21:57:17.897Z,4.33
2018-06-20T21:59:50.500Z,4.57
2018-06-20T22:02:22.852Z,5.63
2018-06-20T22:04:55.319Z,4.83
2018-06-20T22:07:27.590Z,4.97
2018-06-20T22:10:00.016Z,8.00
2018-06-20T22:12:32.791Z,4.90
2018-06-20T22:15:04.176Z,5.73
2018-06-20T22:17:35.450Z,5.03
2018-06-20T22:20:07.895Z,4.30
2018-06-20T22:22:40.173Z,6.13
2018-06-20T22:25:13.363Z,5.07
2018-06-20T22:27:45.908Z,5.40
2018-06-20T22:30:18.384Z,9.17
2018-06-20T22:32:50.563Z,4.33
2018-06-20T22:35:23.078Z,5.43
2018-06-20T22:37:55.417Z,4.97
2018-06-20T22:40:27.783Z,4.33
2018-06-20T22:43:00.035Z,4.23
2018-06-20T22:45:32.914Z,6.30
2018-06-20T22:48:05.102Z,4.33
2018-06-20T22:50:37.485Z,3.60
2018-06-20T22:53:10.057Z,5.17
2018-06-20T22:55:42.574Z,4.00
2018-06-20T22:58:14.866Z,13.13
2018-06-20T23:00:48.016Z,4.20
2018-06-20T23:03:19.809Z,3.90
2018-06-20T23:05:50.922Z,3.70
2018-06-20T23:08:23.326Z,3.00
2018-06-20T23:10:55.658Z,3.20
2018-06-20T23:13:28.222Z,4.90
2018-06-20T23:16:00.534Z,4.03
2018-06-20T23:18:33.167Z,3.67
2018-06-20T23:21:05.978Z,3.77
2018-06-20T23:23:38.328Z,5.90
2018-06-20T23:26:10.747Z,4.50
2018-06-20T23:28:42.857Z,4.00
2018-06-20T23:31:15.479Z,3.30
2018-06-20T23:33:46.782Z,4.30
2018-06-20T23:36:19.344Z,2.40
2018-06-20T23:38:51.935Z,3.30
2018-06-20T23:41:24.403Z,2.33
2018-06-20T23:43:56.792Z,4.23
2018-06-20T23:46:29.978Z,2.23
2018-06-20T23:49:02.557Z,2.50
2018-06-20T23:51:34.878Z,4.80
2018-06-20T23:54:07.094Z,5.10
2018-06-20T23:56:39.289Z,2.80
2018-06-20T23:59:11.621Z,3.80
